香港 の空港の天気 - METARとTAF

香港国際空港 ( VHHH / HKG ) - 香港 赤リョウ角
飛行場実況気象(Metar)
観測時間03/30 18:00 HKT (03/30 10:00 UTC)
風向・風速東 6m/s
視程7000m
天気現象
少しの雲 雲底高度 370m
全天の4割程度の雲 雲底高度 760m
気温24℃
湿度83%
気圧1014hPa
METARVHHH 301000Z 09011KT 7000 FEW012 SCT025 24/21 Q1014 WS R07L NOSIG
過去の天気等 Google飛行場航空写真 Wunderground天気予報

過去48時間のMETAR

飛行場予報(TAF)
発表時間: 3/30 13:00 HKT (3/30 05:00 UTC)
予報対象時間: 30日14時 HKT ~ 31日20時 HKT
風向・風速東南東 5m/s
視程7,000m
少しの雲 雲底高度 460m
全天の4割程度の雲 雲底高度 760m
31日6時 HKT ~ 31日12時 HKT に一時的に
風向・風速不定 3m/s
視程2,500m
天気現象もや 弱い雨
31日12時 HKT ~ 31日16時 HKT に一時的に
風向・風速不定 8m/s 瞬間風速 13m/s
視程2,000m
天気現象雷雨 しゅう雨
少しの積乱雲 雲底高度 300m
全天の4割程度の雲 雲底高度 760m
31日14時 HKT ~ 31日16時 HKT に徐々に
風向・風速北 8m/s 瞬間風速 13m/s
31日16時 HKT ~ 31日20時 HKT に一時的に
視程3,000m
天気現象
TAF VHHH 300500Z 3006/3112 11010KT 7000 FEW015 SCT025 TX27/3006Z TX26/3103Z TN19/3112Z
TEMPO 3022/3104 VRB05KT 2500 BR -RA
TEMPO 3104/3108 VRB15G25KT 2000 TSRA SHRA FEW010CB SCT025
BECMG 3106/3108 36015G25KT
TEMPO 3108/3112 3000 RA